sensor_id;sensor_type;location;lat;lon;timestamp;pressure;altitude;pressure_sealevel;temperature;humidity
53689;BME280;39583;54.682;30.662;2023-02-21T06:56:45;96680.63;;;-1.87;100.00
53689;BME280;39583;54.682;30.662;2023-02-21T06:59:11;96687.69;;;-1.68;100.00
53689;BME280;39583;54.682;30.662;2023-02-21T07:01:37;96689.00;;;-1.52;100.00
53689;BME280;39583;54.682;30.662;2023-02-21T07:04:03;96675.97;;;-1.40;99.83
53689;BME280;39583;54.682;30.662;2023-02-21T07:06:29;96683.56;;;-1.26;99.00
53689;BME280;39583;54.682;30.662;2023-02-21T07:08:58;96682.50;;;-1.18;98.16
53689;BME280;39583;54.682;30.662;2023-02-21T07:11:24;96689.72;;;-1.07;97.96
53689;BME280;39583;54.682;30.662;2023-02-21T07:13:51;96642.03;;;-1.37;97.17
53689;BME280;39583;54.682;30.662;2023-02-21T07:16:18;96697.03;;;-1.02;96.50
53689;BME280;39583;54.682;30.662;2023-02-21T07:18:45;96706.94;;;-0.98;96.38
53689;BME280;39583;54.682;30.662;2023-02-21T07:21:13;96705.91;;;-0.97;96.06
53689;BME280;39583;54.682;30.662;2023-02-21T07:23:41;96702.03;;;-0.94;95.94
53689;BME280;39583;54.682;30.662;2023-02-21T07:26:07;96667.47;;;-1.17;95.68
53689;BME280;39583;54.682;30.662;2023-02-21T07:28:34;96710.28;;;-0.84;95.19
53689;BME280;39583;54.682;30.662;2023-02-21T07:31:00;96710.03;;;-0.76;95.17
53689;BME280;39583;54.682;30.662;2023-02-21T07:33:26;96713.50;;;-0.75;94.80
53689;BME280;39583;54.682;30.662;2023-02-21T07:35:52;96712.69;;;-0.76;94.13
53689;BME280;39583;54.682;30.662;2023-02-21T07:38:20;96716.66;;;-0.67;94.23
53689;BME280;39583;54.682;30.662;2023-02-21T07:40:46;96724.19;;;-0.64;93.48
53689;BME280;39583;54.682;30.662;2023-02-21T07:43:12;96729.06;;;-0.67;92.83
53689;BME280;39583;54.682;30.662;2023-02-21T07:45:38;96738.81;;;-0.68;92.86
53689;BME280;39583;54.682;30.662;2023-02-21T07:48:04;96736.78;;;-0.66;92.88
53689;BME280;39583;54.682;30.662;2023-02-21T07:50:31;96742.66;;;-0.64;92.41
53689;BME280;39583;54.682;30.662;2023-02-21T07:52:57;96737.59;;;-0.65;92.43
53689;BME280;39583;54.682;30.662;2023-02-21T07:55:24;96745.91;;;-0.62;91.63
53689;BME280;39583;54.682;30.662;2023-02-21T07:57:51;96756.19;;;-0.53;92.11
53689;BME280;39583;54.682;30.662;2023-02-21T08:00:17;96758.44;;;-0.50;91.19
53689;BME280;39583;54.682;30.662;2023-02-21T08:02:47;96776.28;;;-0.46;91.06
53689;BME280;39583;54.682;30.662;2023-02-21T08:05:17;96777.44;;;-0.42;91.02
53689;BME280;39583;54.682;30.662;2023-02-21T08:07:43;96778.00;;;-0.33;90.44
53689;BME280;39583;54.682;30.662;2023-02-21T08:10:10;96777.84;;;-0.38;89.80
53689;BME280;39583;54.682;30.662;2023-02-21T08:12:37;96781.66;;;-0.34;90.17
53689;BME280;39583;54.682;30.662;2023-02-21T08:15:04;96706.19;;;-0.80;89.69
53689;BME280;39583;54.682;30.662;2023-02-21T08:17:31;96739.16;;;-0.57;89.15
53689;BME280;39583;54.682;30.662;2023-02-21T08:19:57;96779.63;;;-0.32;89.24
53689;BME280;39583;54.682;30.662;2023-02-21T08:22:23;96797.16;;;-0.13;89.46
53689;BME280;39583;54.682;30.662;2023-02-21T08:24:49;96790.41;;;-0.09;88.70
53689;BME280;39583;54.682;30.662;2023-02-21T08:27:16;96721.69;;;-0.58;88.23
53689;BME280;39583;54.682;30.662;2023-02-21T08:29:43;96779.88;;;-0.15;88.13
53689;BME280;39583;54.682;30.662;2023-02-21T08:32:09;96802.91;;;0.03;88.06
53689;BME280;39583;54.682;30.662;2023-02-21T08:34:35;96786.59;;;0.06;87.94
53689;BME280;39583;54.682;30.662;2023-02-21T08:37:01;96758.34;;;-0.19;87.75
53689;BME280;39583;54.682;30.662;2023-02-21T08:39:31;96806.59;;;0.20;87.45
53689;BME280;39583;54.682;30.662;2023-02-21T08:41:57;96816.16;;;0.21;86.91
53689;BME280;39583;54.682;30.662;2023-02-21T08:44:23;96827.41;;;0.16;86.60
53689;BME280;39583;54.682;30.662;2023-02-21T08:46:49;96821.09;;;0.17;86.01
53689;BME280;39583;54.682;30.662;2023-02-21T08:49:16;96763.63;;;-0.19;85.60
53689;BME280;39583;54.682;30.662;2023-02-21T08:51:42;96822.63;;;0.25;85.47
53689;BME280;39583;54.682;30.662;2023-02-21T08:54:08;96837.19;;;0.34;85.49
53689;BME280;39583;54.682;30.662;2023-02-21T08:56:34;96834.25;;;0.24;84.08
53689;BME280;39583;54.682;30.662;2023-02-21T08:59:00;96854.34;;;0.32;84.66
53689;BME280;39583;54.682;30.662;2023-02-21T09:01:32;96858.31;;;0.41;84.63
53689;BME280;39583;54.682;30.662;2023-02-21T09:03:58;96860.09;;;0.47;84.84
53689;BME280;39583;54.682;30.662;2023-02-21T09:06:24;96801.16;;;0.15;84.07
53689;BME280;39583;54.682;30.662;2023-02-21T09:08:50;96846.31;;;0.38;84.18
53689;BME280;39583;54.682;30.662;2023-02-21T09:11:17;96871.44;;;0.54;84.28
53689;BME280;39583;54.682;30.662;2023-02-21T09:13:43;96750.84;;;-0.22;83.80
53689;BME280;39583;54.682;30.662;2023-02-21T09:16:09;96879.22;;;0.67;84.10
53689;BME280;39583;54.682;30.662;2023-02-21T09:18:35;96838.81;;;0.35;84.27
53689;BME280;39583;54.682;30.662;2023-02-21T09:21:01;96821.91;;;0.36;83.51
53689;BME280;39583;54.682;30.662;2023-02-21T09:23:29;96870.31;;;0.62;82.78
53689;BME280;39583;54.682;30.662;2023-02-21T09:25:56;96850.66;;;0.33;81.78
53689;BME280;39583;54.682;30.662;2023-02-21T09:28:23;96904.06;;;0.48;82.05
53689;BME280;39583;54.682;30.662;2023-02-21T09:30:50;96904.88;;;0.48;81.97
53689;BME280;39583;54.682;30.662;2023-02-21T09:33:16;96901.25;;;0.43;81.92
53689;BME280;39583;54.682;30.662;2023-02-21T09:35:42;96916.00;;;0.57;82.21
53689;BME280;39583;54.682;30.662;2023-02-21T09:38:08;96899.94;;;0.52;82.01
53689;BME280;39583;54.682;30.662;2023-02-21T09:40:40;96914.00;;;0.52;80.67
53689;BME280;39583;54.682;30.662;2023-02-21T09:43:13;96930.69;;;0.53;80.52
53689;BME280;39583;54.682;30.662;2023-02-21T09:45:41;96939.94;;;0.44;80.92
53689;BME280;39583;54.682;30.662;2023-02-21T09:48:14;96946.41;;;0.48;81.35
53689;BME280;39583;54.682;30.662;2023-02-21T09:50:48;96947.53;;;0.58;82.32
53689;BME280;39583;54.682;30.662;2023-02-21T09:53:27;96948.56;;;0.57;81.40
53689;BME280;39583;54.682;30.662;2023-02-21T09:55:58;96955.84;;;0.62;81.38
53689;BME280;39583;54.682;30.662;2023-02-21T09:58:25;96893.25;;;0.24;81.29
53689;BME280;39583;54.682;30.662;2023-02-21T10:00:52;96911.19;;;0.47;81.32
53689;BME280;39583;54.682;30.662;2023-02-21T10:03:44;96964.31;;;0.96;81.30
53689;BME280;39583;54.682;30.662;2023-02-21T10:06:29;96972.47;;;1.12;80.44
53689;BME280;39583;54.682;30.662;2023-02-21T10:09:30;96975.78;;;1.26;80.10
53689;BME280;39583;54.682;30.662;2023-02-21T10:12:02;96981.75;;;1.58;80.09
53689;BME280;39583;54.682;30.662;2023-02-21T10:14:38;96984.56;;;1.75;78.64
53689;BME280;39583;54.682;30.662;2023-02-21T10:17:18;96991.91;;;1.91;78.35
53689;BME280;39583;54.682;30.662;2023-02-21T10:19:52;96994.09;;;2.24;79.50
53689;BME280;39583;54.682;30.662;2023-02-21T10:22:26;97008.59;;;2.52;78.90
53689;BME280;39583;54.682;30.662;2023-02-21T10:24:53;97016.13;;;2.78;79.43
53689;BME280;39583;54.682;30.662;2023-02-21T10:27:25;97017.25;;;2.59;78.94
53689;BME280;39583;54.682;30.662;2023-02-21T10:32:25;97039.41;;;2.11;79.74
53689;BME280;39583;54.682;30.662;2023-02-21T10:34:52;97045.72;;;1.98;80.39
53689;BME280;39583;54.682;30.662;2023-02-21T10:37:45;97059.44;;;1.77;80.68
53689;BME280;39583;54.682;30.662;2023-02-21T10:40:28;97064.84;;;1.70;81.34
53689;BME280;39583;54.682;30.662;2023-02-21T10:42:56;97072.13;;;1.57;82.10
53689;BME280;39583;54.682;30.662;2023-02-21T10:45:32;97043.81;;;1.14;81.43
53689;BME280;39583;54.682;30.662;2023-02-21T10:48:05;97084.38;;;1.14;81.54
53689;BME280;39583;54.682;30.662;2023-02-21T10:50:41;97096.78;;;1.21;82.66
53689;BME280;39583;54.682;30.662;2023-02-21T10:53:22;97047.84;;;0.98;83.17
53689;BME280;39583;54.682;30.662;2023-02-21T10:56:21;97120.38;;;1.47;82.86
53689;BME280;39583;54.682;30.662;2023-02-21T10:58:58;97119.47;;;1.35;82.23
53689;BME280;39583;54.682;30.662;2023-02-21T11:03:58;97135.09;;;1.43;82.73
53689;BME280;39583;54.682;30.662;2023-02-21T11:06:37;97141.53;;;1.29;81.03
53689;BME280;39583;54.682;30.662;2023-02-21T11:14:42;97158.22;;;1.36;81.52
53689;BME280;39583;54.682;30.662;2023-02-21T11:17:13;97174.84;;;1.43;81.41
53689;BME280;39583;54.682;30.662;2023-02-21T11:19:54;97181.41;;;1.40;80.21
53689;BME280;39583;54.682;30.662;2023-02-21T11:25:30;97186.78;;;1.34;81.10
53689;BME280;39583;54.682;30.662;2023-02-21T11:30:25;97211.22;;;1.36;80.73
53689;BME280;39583;54.682;30.662;2023-02-21T11:32:55;97221.41;;;1.39;81.31
53689;BME280;39583;54.682;30.662;2023-02-21T11:35:31;97239.00;;;1.33;79.68
53689;BME280;39583;54.682;30.662;2023-02-21T11:38:01;97242.50;;;1.27;80.33
53689;BME280;39583;54.682;30.662;2023-02-21T11:40:31;97261.47;;;1.24;80.19
53689;BME280;39583;54.682;30.662;2023-02-21T11:43:26;97265.69;;;1.07;80.14
53689;BME280;39583;54.682;30.662;2023-02-21T11:46:09;97269.00;;;0.96;80.01
53689;BME280;39583;54.682;30.662;2023-02-21T11:54:04;97298.75;;;0.46;79.64
53689;BME280;39583;54.682;30.662;2023-02-21T11:56:51;97290.66;;;0.28;80.68
53689;BME280;39583;54.682;30.662;2023-02-21T11:59:28;97312.19;;;0.38;80.64
53689;BME280;39583;54.682;30.662;2023-02-21T12:12:51;97336.59;;;1.11;81.19
53689;BME280;39583;54.682;30.662;2023-02-21T12:24:54;97336.44;;;1.38;79.65
53689;BME280;39583;54.682;30.662;2023-02-21T12:27:43;97361.50;;;1.42;79.80
53689;BME280;39583;54.682;30.662;2023-02-21T12:32:54;97387.84;;;1.75;80.71
53689;BME280;39583;54.682;30.662;2023-02-21T12:41:03;97398.28;;;1.70;79.49
53689;BME280;39583;54.682;30.662;2023-02-21T12:48:50;97422.09;;;0.87;78.67
53689;BME280;39583;54.682;30.662;2023-02-21T12:51:21;97430.09;;;0.47;79.04
53689;BME280;39583;54.682;30.662;2023-02-21T12:53:55;97434.63;;;0.27;80.11
53689;BME280;39583;54.682;30.662;2023-02-21T13:01:43;97453.97;;;0.41;80.60
53689;BME280;39583;54.682;30.662;2023-02-21T13:06:50;97466.75;;;0.24;80.52
53689;BME280;39583;54.682;30.662;2023-02-21T13:12:08;97487.94;;;0.70;80.15
53689;BME280;39583;54.682;30.662;2023-02-21T13:17:09;97503.84;;;0.57;78.67
53689;BME280;39583;54.682;30.662;2023-02-21T13:19:59;97504.63;;;0.38;78.71
53689;BME280;39583;54.682;30.662;2023-02-21T13:28:36;97534.91;;;-0.05;78.55
53689;BME280;39583;54.682;30.662;2023-02-21T13:31:05;97548.13;;;-0.11;79.59
53689;BME280;39583;54.682;30.662;2023-02-21T13:33:50;97556.88;;;-0.11;79.94
53689;BME280;39583;54.682;30.662;2023-02-21T13:39:26;97574.53;;;-0.18;78.85
53689;BME280;39583;54.682;30.662;2023-02-21T13:44:33;97604.19;;;-0.36;79.29
53689;BME280;39583;54.682;30.662;2023-02-21T13:47:13;97605.75;;;-0.48;79.29
53689;BME280;39583;54.682;30.662;2023-02-21T13:57:51;97647.13;;;-0.90;78.57
53689;BME280;39583;54.682;30.662;2023-02-21T14:08:33;97671.75;;;-1.10;78.55
53689;BME280;39583;54.682;30.662;2023-02-21T14:13:44;97686.84;;;-1.26;78.82
53689;BME280;39583;54.682;30.662;2023-02-21T14:24:05;97727.41;;;-1.48;78.52
53689;BME280;39583;54.682;30.662;2023-02-21T14:37:58;97774.22;;;-1.86;78.02
53689;BME280;39583;54.682;30.662;2023-02-21T14:40:40;97769.78;;;-2.00;78.09
53689;BME280;39583;54.682;30.662;2023-02-21T14:48:53;97807.41;;;-2.21;78.37
53689;BME280;39583;54.682;30.662;2023-02-21T15:02:53;97836.66;;;-2.77;78.35
53689;BME280;39583;54.682;30.662;2023-02-21T15:05:27;97854.75;;;-2.74;78.18
53689;BME280;39583;54.682;30.662;2023-02-21T15:08:03;97861.38;;;-2.78;78.15
53689;BME280;39583;54.682;30.662;2023-02-21T15:10:38;97867.63;;;-2.79;78.60
53689;BME280;39583;54.682;30.662;2023-02-21T15:13:05;97879.88;;;-2.86;78.61
53689;BME280;39583;54.682;30.662;2023-02-21T15:15:41;97885.47;;;-2.89;78.17
53689;BME280;39583;54.682;30.662;2023-02-21T15:18:22;97894.72;;;-2.93;78.21
53689;BME280;39583;54.682;30.662;2023-02-21T15:21:21;97898.19;;;-3.01;78.04
53689;BME280;39583;54.682;30.662;2023-02-21T15:23:59;97914.69;;;-3.07;78.33
53689;BME280;39583;54.682;30.662;2023-02-21T15:26:28;97919.31;;;-3.09;78.15
53689;BME280;39583;54.682;30.662;2023-02-21T15:29:13;97922.94;;;-3.10;78.59
53689;BME280;39583;54.682;30.662;2023-02-21T15:31:52;97929.38;;;-3.12;78.67
53689;BME280;39583;54.682;30.662;2023-02-21T15:39:39;97960.03;;;-3.36;78.56
53689;BME280;39583;54.682;30.662;2023-02-21T15:42:08;97969.09;;;-3.38;79.04
53689;BME280;39583;54.682;30.662;2023-02-21T15:44:59;97977.81;;;-3.38;78.92
53689;BME280;39583;54.682;30.662;2023-02-21T15:47:28;97982.41;;;-3.40;78.98
53689;BME280;39583;54.682;30.662;2023-02-21T15:52:40;98003.78;;;-3.43;79.19
53689;BME280;39583;54.682;30.662;2023-02-21T16:06:25;98039.31;;;-3.55;79.88
53689;BME280;39583;54.682;30.662;2023-02-21T16:11:44;98058.41;;;-3.69;79.62
53689;BME280;39583;54.682;30.662;2023-02-21T16:14:45;98062.00;;;-3.87;79.65
53689;BME280;39583;54.682;30.662;2023-02-21T16:19:40;98089.06;;;-4.19;79.95
53689;BME280;39583;54.682;30.662;2023-02-21T16:24:43;98107.22;;;-4.41;80.33
53689;BME280;39583;54.682;30.662;2023-02-21T16:27:11;98119.00;;;-4.46;80.14
53689;BME280;39583;54.682;30.662;2023-02-21T16:29:40;98130.97;;;-4.51;80.23
53689;BME280;39583;54.682;30.662;2023-02-21T16:32:17;98136.56;;;-4.54;80.60
53689;BME280;39583;54.682;30.662;2023-02-21T16:34:44;98143.47;;;-4.53;80.33
53689;BME280;39583;54.682;30.662;2023-02-21T16:37:12;98124.69;;;-4.66;80.58
53689;BME280;39583;54.682;30.662;2023-02-21T16:39:39;98168.75;;;-4.52;80.46
53689;BME280;39583;54.682;30.662;2023-02-21T16:42:06;98181.50;;;-4.57;80.11
53689;BME280;39583;54.682;30.662;2023-02-21T16:44:32;98182.97;;;-4.63;80.56
53689;BME280;39583;54.682;30.662;2023-02-21T16:46:58;98181.16;;;-4.62;80.25
53689;BME280;39583;54.682;30.662;2023-02-21T16:49:24;98195.78;;;-4.60;80.52
53689;BME280;39583;54.682;30.662;2023-02-21T16:51:50;98200.59;;;-4.55;80.82
53689;BME280;39583;54.682;30.662;2023-02-21T16:54:17;98202.06;;;-4.53;80.33
53689;BME280;39583;54.682;30.662;2023-02-21T16:56:45;98217.84;;;-4.53;80.48
53689;BME280;39583;54.682;30.662;2023-02-21T16:59:15;98212.03;;;-4.56;80.51
53689;BME280;39583;54.682;30.662;2023-02-21T17:01:41;98226.31;;;-4.59;80.52
53689;BME280;39583;54.682;30.662;2023-02-21T17:04:17;98233.69;;;-4.62;80.31
53689;BME280;39583;54.682;30.662;2023-02-21T17:06:52;98237.88;;;-4.69;80.32
53689;BME280;39583;54.682;30.662;2023-02-21T17:09:23;98252.94;;;-4.80;80.18
53689;BME280;39583;54.682;30.662;2023-02-21T17:11:51;98239.00;;;-4.98;80.31
53689;BME280;39583;54.682;30.662;2023-02-21T17:14:19;98246.22;;;-5.18;80.33
53689;BME280;39583;54.682;30.662;2023-02-21T17:16:46;98251.16;;;-5.32;80.49
53689;BME280;39583;54.682;30.662;2023-02-21T17:19:17;98257.44;;;-5.43;80.92
53689;BME280;39583;54.682;30.662;2023-02-21T17:21:46;98254.72;;;-5.51;81.27
53689;BME280;39583;54.682;30.662;2023-02-21T17:24:14;98253.69;;;-5.58;81.54
53689;BME280;39583;54.682;30.662;2023-02-21T17:26:41;98252.75;;;-5.67;81.52
53689;BME280;39583;54.682;30.662;2023-02-21T17:29:07;98256.19;;;-5.67;82.08
53689;BME280;39583;54.682;30.662;2023-02-21T17:31:34;98256.19;;;-5.67;82.26
53689;BME280;39583;54.682;30.662;2023-02-21T17:34:01;98267.22;;;-5.63;82.48
53689;BME280;39583;54.682;30.662;2023-02-21T17:36:27;98269.53;;;-5.60;82.63
53689;BME280;39583;54.682;30.662;2023-02-21T17:38:56;98267.84;;;-5.51;82.88
53689;BME280;39583;54.682;30.662;2023-02-21T17:41:23;98279.09;;;-5.41;82.94
53689;BME280;39583;54.682;30.662;2023-02-21T17:43:49;98285.94;;;-5.30;82.90
53689;BME280;39583;54.682;30.662;2023-02-21T17:46:18;98293.75;;;-5.21;82.62
53689;BME280;39583;54.682;30.662;2023-02-21T17:48:45;98289.31;;;-5.20;82.67
53689;BME280;39583;54.682;30.662;2023-02-21T17:51:19;98302.19;;;-5.09;82.63
53689;BME280;39583;54.682;30.662;2023-02-21T17:53:46;98285.44;;;-5.16;82.44
53689;BME280;39583;54.682;30.662;2023-02-21T17:56:16;98308.69;;;-5.03;82.51
53689;BME280;39583;54.682;30.662;2023-02-21T17:58:43;98314.91;;;-5.05;82.42
53689;BME280;39583;54.682;30.662;2023-02-21T18:01:14;98300.56;;;-5.10;82.62
53689;BME280;39583;54.682;30.662;2023-02-21T18:03:40;98320.50;;;-4.99;82.73
53689;BME280;39583;54.682;30.662;2023-02-21T18:06:06;98321.75;;;-4.94;82.68
53689;BME280;39583;54.682;30.662;2023-02-21T18:08:32;98320.75;;;-4.93;82.91
53689;BME280;39583;54.682;30.662;2023-02-21T18:10:58;98331.25;;;-4.93;82.79
53689;BME280;39583;54.682;30.662;2023-02-21T18:13:24;98322.00;;;-4.97;82.67
53689;BME280;39583;54.682;30.662;2023-02-21T18:15:51;98334.56;;;-4.91;82.74
53689;BME280;39583;54.682;30.662;2023-02-21T18:18:17;98324.63;;;-4.97;82.64
53689;BME280;39583;54.682;30.662;2023-02-21T18:20:43;98312.69;;;-5.09;82.65
53689;BME280;39583;54.682;30.662;2023-02-21T18:23:11;98342.75;;;-4.94;82.68
53689;BME280;39583;54.682;30.662;2023-02-21T18:25:40;98346.63;;;-4.98;82.62
53689;BME280;39583;54.682;30.662;2023-02-21T18:28:10;98341.66;;;-5.01;82.63
53689;BME280;39583;54.682;30.662;2023-02-21T18:30:37;98353.97;;;-5.01;82.26
53689;BME280;39583;54.682;30.662;2023-02-21T18:33:03;98357.19;;;-5.08;82.03
53689;BME280;39583;54.682;30.662;2023-02-21T18:35:30;98368.41;;;-5.15;82.02
53689;BME280;39583;54.682;30.662;2023-02-21T18:37:56;98371.09;;;-5.25;81.70
53689;BME280;39583;54.682;30.662;2023-02-21T18:40:22;98373.50;;;-5.31;81.60
53689;BME280;39583;54.682;30.662;2023-02-21T18:43:03;98379.31;;;-5.38;81.70
53689;BME280;39583;54.682;30.662;2023-02-21T18:45:32;98389.81;;;-5.38;82.00
53689;BME280;39583;54.682;30.662;2023-02-21T18:48:00;98395.56;;;-5.34;82.08
53689;BME280;39583;54.682;30.662;2023-02-21T18:50:26;98398.91;;;-5.32;81.51
53689;BME280;39583;54.682;30.662;2023-02-21T18:52:52;98400.59;;;-5.41;81.32
53689;BME280;39583;54.682;30.662;2023-02-21T18:55:18;98412.72;;;-5.40;81.39
53689;BME280;39583;54.682;30.662;2023-02-21T18:57:45;98390.59;;;-5.65;81.13
53689;BME280;39583;54.682;30.662;2023-02-21T19:00:18;98416.13;;;-5.57;81.10
53689;BME280;39583;54.682;30.662;2023-02-21T19:02:44;98412.03;;;-5.79;81.06
53689;BME280;39583;54.682;30.662;2023-02-21T19:05:16;98434.28;;;-5.83;80.97
53689;BME280;39583;54.682;30.662;2023-02-21T19:07:43;98437.63;;;-6.00;81.02
53689;BME280;39583;54.682;30.662;2023-02-21T19:10:10;98445.78;;;-6.13;81.03
53689;BME280;39583;54.682;30.662;2023-02-21T19:12:36;98452.13;;;-6.25;81.18
53689;BME280;39583;54.682;30.662;2023-02-21T19:15:04;98454.50;;;-6.32;81.64
53689;BME280;39583;54.682;30.662;2023-02-21T19:17:30;98460.56;;;-6.41;81.32
53689;BME280;39583;54.682;30.662;2023-02-21T19:19:56;98470.06;;;-6.49;81.33
53689;BME280;39583;54.682;30.662;2023-02-21T19:22:22;98477.50;;;-6.55;81.97
53689;BME280;39583;54.682;30.662;2023-02-21T19:24:49;98476.81;;;-6.57;82.01
53689;BME280;39583;54.682;30.662;2023-02-21T19:27:15;98484.13;;;-6.50;82.11
53689;BME280;39583;54.682;30.662;2023-02-21T19:29:41;98481.38;;;-6.49;82.16
53689;BME280;39583;54.682;30.662;2023-02-21T19:32:07;98483.56;;;-6.44;81.81
53689;BME280;39583;54.682;30.662;2023-02-21T19:34:34;98474.47;;;-6.60;81.33
53689;BME280;39583;54.682;30.662;2023-02-21T19:37:00;98464.91;;;-6.80;81.23
53689;BME280;39583;54.682;30.662;2023-02-21T19:39:26;98492.50;;;-6.76;81.75
53689;BME280;39583;54.682;30.662;2023-02-21T19:41:53;98501.84;;;-6.83;81.52
53689;BME280;39583;54.682;30.662;2023-02-21T19:44:19;98506.34;;;-6.95;81.70
53689;BME280;39583;54.682;30.662;2023-02-21T19:46:45;98517.72;;;-7.05;81.60
53689;BME280;39583;54.682;30.662;2023-02-21T19:49:11;98516.28;;;-7.19;81.64
53689;BME280;39583;54.682;30.662;2023-02-21T19:51:47;98524.34;;;-7.32;81.71
53689;BME280;39583;54.682;30.662;2023-02-21T19:54:15;98478.75;;;-7.69;81.97
53689;BME280;39583;54.682;30.662;2023-02-21T19:56:42;98518.16;;;-7.61;82.06
53689;BME280;39583;54.682;30.662;2023-02-21T19:59:08;98537.97;;;-7.59;82.19
53689;BME280;39583;54.682;30.662;2023-02-21T20:01:35;98546.78;;;-7.60;82.29
53689;BME280;39583;54.682;30.662;2023-02-21T20:04:01;98557.50;;;-7.63;82.46
53689;BME280;39583;54.682;30.662;2023-02-21T20:06:29;98555.69;;;-7.62;82.65
53689;BME280;39583;54.682;30.662;2023-02-21T20:08:59;98557.88;;;-7.67;82.26
53689;BME280;39583;54.682;30.662;2023-02-21T20:11:24;98563.59;;;-7.74;82.05
53689;BME280;39583;54.682;30.662;2023-02-21T20:13:50;98564.25;;;-7.81;82.03
53689;BME280;39583;54.682;30.662;2023-02-21T20:16:17;98564.88;;;-7.89;81.99
53689;BME280;39583;54.682;30.662;2023-02-21T20:18:46;98582.25;;;-7.99;81.97
53689;BME280;39583;54.682;30.662;2023-02-21T20:21:19;98593.66;;;-8.00;82.51
53689;BME280;39583;54.682;30.662;2023-02-21T20:23:46;98509.09;;;-8.52;82.40
53689;BME280;39583;54.682;30.662;2023-02-21T20:26:13;98597.19;;;-7.90;82.50
53689;BME280;39583;54.682;30.662;2023-02-21T20:28:39;98602.50;;;-7.80;82.52
53689;BME280;39583;54.682;30.662;2023-02-21T20:31:05;98592.13;;;-7.82;82.33
53689;BME280;39583;54.682;30.662;2023-02-21T20:33:37;98607.03;;;-7.61;82.19
53689;BME280;39583;54.682;30.662;2023-02-21T20:36:03;98608.28;;;-7.56;82.36
53689;BME280;39583;54.682;30.662;2023-02-21T20:38:30;98623.69;;;-7.41;82.05
53689;BME280;39583;54.682;30.662;2023-02-21T20:40:56;98628.41;;;-7.35;81.84
53689;BME280;39583;54.682;30.662;2023-02-21T20:43:22;98637.78;;;-7.33;81.80
53689;BME280;39583;54.682;30.662;2023-02-21T20:45:50;98639.44;;;-7.32;81.57
53689;BME280;39583;54.682;30.662;2023-02-21T20:48:17;98649.84;;;-7.41;81.37
53689;BME280;39583;54.682;30.662;2023-02-21T20:50:44;98614.25;;;-7.86;81.15
53689;BME280;39583;54.682;30.662;2023-02-21T20:53:11;98658.31;;;-7.81;81.44
53689;BME280;39583;54.682;30.662;2023-02-21T20:55:37;98655.97;;;-7.95;81.73
53689;BME280;39583;54.682;30.662;2023-02-21T20:58:05;98649.34;;;-8.11;81.77
53689;BME280;39583;54.682;30.662;2023-02-21T21:00:32;98637.06;;;-8.20;82.24
53689;BME280;39583;54.682;30.662;2023-02-21T21:03:05;98677.69;;;-7.95;82.42
53689;BME280;39583;54.682;30.662;2023-02-21T21:05:34;98667.03;;;-8.03;82.48
53689;BME280;39583;54.682;30.662;2023-02-21T21:07:59;98683.66;;;-7.93;82.20
53689;BME280;39583;54.682;30.662;2023-02-21T21:10:26;98674.38;;;-7.97;81.92
53689;BME280;39583;54.682;30.662;2023-02-21T21:12:52;98684.38;;;-8.02;81.88
53689;BME280;39583;54.682;30.662;2023-02-21T21:15:19;98685.78;;;-8.09;81.88
53689;BME280;39583;54.682;30.662;2023-02-21T21:17:46;98694.47;;;-8.09;82.01
53689;BME280;39583;54.682;30.662;2023-02-21T21:20:19;98702.31;;;-8.09;82.24
53689;BME280;39583;54.682;30.662;2023-02-21T21:22:46;98706.69;;;-8.09;82.24
53689;BME280;39583;54.682;30.662;2023-02-21T21:25:13;98704.09;;;-8.09;81.87
53689;BME280;39583;54.682;30.662;2023-02-21T21:27:40;98715.25;;;-8.07;81.96
53689;BME280;39583;54.682;30.662;2023-02-21T21:30:07;98711.09;;;-8.10;81.53
53689;BME280;39583;54.682;30.662;2023-02-21T21:32:33;98723.56;;;-8.13;81.54
53689;BME280;39583;54.682;30.662;2023-02-21T21:35:00;98697.13;;;-8.31;81.04
53689;BME280;39583;54.682;30.662;2023-02-21T21:37:32;98716.81;;;-8.27;81.10
53689;BME280;39583;54.682;30.662;2023-02-21T21:39:58;98731.91;;;-8.19;80.78
53689;BME280;39583;54.682;30.662;2023-02-21T21:42:39;98739.47;;;-8.27;80.67
53689;BME280;39583;54.682;30.662;2023-02-21T21:45:05;98744.25;;;-8.33;80.56
53689;BME280;39583;54.682;30.662;2023-02-21T21:47:35;98755.84;;;-8.25;80.53
53689;BME280;39583;54.682;30.662;2023-02-21T21:50:05;98760.25;;;-8.26;80.68
53689;BME280;39583;54.682;30.662;2023-02-21T21:52:32;98762.03;;;-8.26;80.34
53689;BME280;39583;54.682;30.662;2023-02-21T21:54:58;98763.94;;;-8.28;80.19
53689;BME280;39583;54.682;30.662;2023-02-21T21:57:24;98774.38;;;-8.28;80.23
53689;BME280;39583;54.682;30.662;2023-02-21T21:59:53;98778.66;;;-8.27;80.32
53689;BME280;39583;54.682;30.662;2023-02-21T22:02:20;98791.34;;;-8.23;80.31
53689;BME280;39583;54.682;30.662;2023-02-21T22:04:46;98792.19;;;-8.22;80.33
53689;BME280;39583;54.682;30.662;2023-02-21T22:07:13;98800.97;;;-8.23;80.22
53689;BME280;39583;54.682;30.662;2023-02-21T22:09:39;98797.63;;;-8.25;80.51
53689;BME280;39583;54.682;30.662;2023-02-21T22:12:06;98797.53;;;-8.24;80.68
53689;BME280;39583;54.682;30.662;2023-02-21T22:14:33;98807.97;;;-8.24;80.58
53689;BME280;39583;54.682;30.662;2023-02-21T22:16:59;98807.84;;;-8.22;80.77
53689;BME280;39583;54.682;30.662;2023-02-21T22:19:27;98812.13;;;-8.21;80.94
53689;BME280;39583;54.682;30.662;2023-02-21T22:21:53;98818.53;;;-8.25;80.79
53689;BME280;39583;54.682;30.662;2023-02-21T22:24:20;98818.19;;;-8.32;80.68
53689;BME280;39583;54.682;30.662;2023-02-21T22:26:50;98823.78;;;-8.37;80.72
53689;BME280;39583;54.682;30.662;2023-02-21T22:29:17;98818.19;;;-8.43;80.62
53689;BME280;39583;54.682;30.662;2023-02-21T22:31:47;98824.47;;;-8.57;80.71
53689;BME280;39583;54.682;30.662;2023-02-21T22:34:15;98822.53;;;-8.66;80.88
53689;BME280;39583;54.682;30.662;2023-02-21T22:36:49;98833.44;;;-8.72;80.86
53689;BME280;39583;54.682;30.662;2023-02-21T22:39:15;98827.00;;;-8.79;80.77
53689;BME280;39583;54.682;30.662;2023-02-21T22:41:42;98825.34;;;-8.80;80.86
53689;BME280;39583;54.682;30.662;2023-02-21T22:44:09;98834.00;;;-8.80;80.50